Impacts TAF Board INFO
FOR SITUATIONAL AWARENESS. NOT TO BE USED FOR FLIGHT PLANNING PURPOSES.
IDs:

KATL - Atlanta/Hartsfield-J, GA, US

Issued at 1728 UTC 23 Feb 2017
Updated at 1829 UTC 23 Feb 2017
Potential Impact None Slight Moderate High
Time1752Z 23/19Z 23/20Z 23/21Z 23/22Z 23/23Z 24/00Z 24/01Z 24/02Z 24/03Z 24/04Z 24/05Z 24/06Z 24/07Z
Type OBS PRVL PRVL PRVL PRVL PRVL PRVL PRVL PRVL PRVL PRVL PRVL PRVL PRVL
VIS 10 >6 >6 >6 >6 >6 >6 >6 >6 >6 >6 >6 >6 >6
CIG 32 -- -- -- -- -- -- -- -- -- -- -- -- --
Cover BKN SCT SCT SCT SCT SCT SCT SKC SKC SKC SKC SKC SKC SKC
FltCat VFR VFR VFR VFR VFR VFR VFR VFR VFR VFR VFR VFR VFR VFR
WX -- -- -- -- -- -- -- -- -- -- -- -- -- --
WDir 130 110 110 110 110 110 110 120 120 120 120 120 120 120
WSpd 7 7 7 7 7 7 7 6 6 6 6 6 6 6
WGst -- -- -- -- -- -- -- -- -- -- -- -- -- --

Raw TAF
KATL 231728Z 2318/2424 10007KT P6SM SCT025
  FM231900 11007KT P6SM SCT050
  FM240100 12006KT P6SM SKC
  FM241000 14004KT 5SM BR BKN010
  FM241500 16008KT P6SM SCT040


Raw METAR
KATL 231752Z 13007KT 100V160 10SM BKN032 22/13 A2987 RMK AO2 SLP109 T02170133 10217 20133 58018
KATL 231652Z 12007KT 090V160 10SM SCT024 21/14 A2990 RMK AO2 SLP120 T02060139
KATL 231552Z 09008KT 10SM SCT015 18/14 A2992 RMK AO2 SLP126 T01830139

METAR Board
Radar Display
Forecast Discussion

FOR SITUATIONAL AWARENESS. NOT TO BE USED FOR FLIGHT PLANNING PURPOSES.

Page loaded:  18:29 UTC  |   10:29 AM Pacific  |   11:29 AM Mountain  |   12:29 PM Central  |   01:29 PM Eastern

 

ADVISORIES

FORECASTS

FORECASTS

OBSERVATIONS

USER TOOLS

ABOUT US